createdAt,value
2022-11-10T00:02:35.861Z,101094.63
2022-11-10T00:05:22.381Z,101107.59
2022-11-10T00:08:11.876Z,101102.34
2022-11-10T00:11:01.328Z,101097.09
2022-11-10T00:14:07.153Z,101108.44
2022-11-10T00:17:02.503Z,101110.97
2022-11-10T00:19:48.628Z,101119.75
2022-11-10T00:22:35.489Z,101112.72
2022-11-10T00:25:21.970Z,101123.97
2022-11-10T00:28:09.647Z,101121.56
2022-11-10T00:30:55.842Z,101124.06
2022-11-10T00:33:44.605Z,101125.00
2022-11-10T00:36:31.110Z,101127.63
2022-11-10T00:39:17.136Z,101123.22
2022-11-10T00:42:03.741Z,101125.81
2022-11-10T00:44:51.542Z,101127.63
2022-11-10T00:47:37.695Z,101133.78
2022-11-10T00:50:23.764Z,101135.47
2022-11-10T00:53:10.001Z,101133.78
2022-11-10T00:55:55.833Z,101132.03
2022-11-10T00:58:41.807Z,101132.03
2022-11-10T01:01:29.033Z,101143.34
2022-11-10T01:04:14.995Z,101140.63
2022-11-10T01:07:01.161Z,101141.56
2022-11-10T01:09:47.519Z,101144.16
2022-11-10T01:12:33.542Z,101145.03
2022-11-10T01:15:25.993Z,101156.22
2022-11-10T01:18:14.752Z,101154.44
2022-11-10T01:21:01.092Z,101156.13
2022-11-10T01:23:47.691Z,101150.88
2022-11-10T01:26:33.670Z,101161.38
2022-11-10T01:29:19.722Z,101150.88
2022-11-10T01:32:05.884Z,101155.31
2022-11-10T01:34:53.433Z,101153.63
2022-11-10T01:37:40.577Z,101155.41
2022-11-10T01:40:27.168Z,101164.94
2022-11-10T01:43:14.206Z,101170.16
2022-11-10T01:46:01.858Z,101175.41
2022-11-10T01:48:51.087Z,101173.00
2022-11-10T01:51:45.827Z,101184.44
2022-11-10T01:54:35.735Z,101185.38
2022-11-10T01:57:21.715Z,101185.38
2022-11-10T02:00:09.931Z,101188.00
2022-11-10T02:03:01.954Z,101204.69
2022-11-10T02:05:47.944Z,101199.44
2022-11-10T02:08:36.307Z,101202.19
2022-11-10T02:11:23.692Z,101207.53
2022-11-10T02:14:10.603Z,101218.94
2022-11-10T02:16:57.232Z,101207.63
2022-11-10T02:19:43.508Z,101212.97
2022-11-10T02:22:31.443Z,101210.56
2022-11-10T02:25:21.415Z,101208.88
2022-11-10T02:28:07.373Z,101208.88
2022-11-10T02:30:54.655Z,101210.66
2022-11-10T02:33:41.335Z,101225.44
2022-11-10T02:36:27.225Z,101223.66
2022-11-10T02:39:14.645Z,101234.97
2022-11-10T02:42:00.673Z,101226.19
2022-11-10T02:44:46.614Z,101234.88
2022-11-10T02:47:32.624Z,101234.88
2022-11-10T02:50:18.805Z,101235.69
2022-11-10T02:53:05.247Z,101245.34
2022-11-10T02:55:52.899Z,101240.94
2022-11-10T02:58:38.982Z,101246.06
2022-11-10T03:01:25.165Z,101247.03
2022-11-10T03:04:12.093Z,101249.66
2022-11-10T03:06:58.335Z,101259.28
2022-11-10T03:09:44.984Z,101268.00
2022-11-10T03:12:32.522Z,101269.75
2022-11-10T03:15:18.715Z,101268.81
2022-11-10T03:18:05.889Z,101277.63
2022-11-10T03:20:52.181Z,101282.03
2022-11-10T03:23:38.735Z,101281.31
2022-11-10T03:26:24.529Z,101286.44
2022-11-10T03:29:12.008Z,101295.13
2022-11-10T03:31:58.050Z,101303.72
2022-11-10T03:34:44.042Z,101295.13
2022-11-10T03:37:29.989Z,101301.09
2022-11-10T03:40:16.358Z,101315.88
2022-11-10T03:43:02.380Z,101303.72
2022-11-10T03:45:49.613Z,101313.38
2022-11-10T03:48:35.558Z,101314.31
2022-11-10T03:51:22.997Z,101317.88
2022-11-10T03:54:09.436Z,101325.75
2022-11-10T03:56:55.578Z,101330.88
2022-11-10T03:59:41.721Z,101330.88
2022-11-10T04:02:29.025Z,101329.09
2022-11-10T04:05:32.944Z,101325.66
2022-11-10T04:08:36.745Z,101332.66
2022-11-10T04:11:37.284Z,101333.59
2022-11-10T04:14:41.102Z,101338.94
2022-11-10T04:17:28.761Z,101343.38
2022-11-10T04:20:15.060Z,101345.22
2022-11-10T04:23:19.360Z,101353.19
2022-11-10T04:26:25.092Z,101361.19
2022-11-10T04:29:12.794Z,101360.41
2022-11-10T04:31:58.967Z,101371.00
2022-11-10T04:34:46.561Z,101375.50
2022-11-10T04:37:32.735Z,101377.38
2022-11-10T04:40:19.122Z,101379.19
2022-11-10T04:43:05.107Z,101388.81
2022-11-10T04:45:51.045Z,101388.81
2022-11-10T04:48:37.674Z,101393.22
2022-11-10T04:51:27.168Z,101401.06
2022-11-10T04:54:13.585Z,101398.53
2022-11-10T04:56:59.728Z,101401.16
2022-11-10T04:59:45.874Z,101402.19
2022-11-10T05:02:35.514Z,101397.81
2022-11-10T05:05:24.341Z,101407.44
2022-11-10T05:08:12.002Z,101407.44
2022-11-10T05:10:58.454Z,101411.84
2022-11-10T05:13:45.655Z,101405.88
2022-11-10T05:16:32.160Z,101415.53
2022-11-10T05:19:18.684Z,101419.16
2022-11-10T05:22:04.592Z,101416.53
2022-11-10T05:24:52.307Z,101421.06
2022-11-10T05:27:38.758Z,101421.97
2022-11-10T05:30:24.711Z,101442.94
2022-11-10T05:33:11.303Z,101444.09
2022-11-10T05:35:57.500Z,101440.69
2022-11-10T05:38:43.963Z,101448.75
2022-11-10T05:41:31.664Z,101464.69
2022-11-10T05:44:17.982Z,101467.69
2022-11-10T05:47:04.011Z,101477.69
2022-11-10T05:49:50.265Z,101481.25
2022-11-10T05:52:36.963Z,101485.00
2022-11-10T05:55:25.126Z,101496.59
2022-11-10T05:58:12.998Z,101499.44
2022-11-10T06:00:59.147Z,101498.72
2022-11-10T06:03:45.149Z,101503.19
2022-11-10T06:06:32.135Z,101509.53
2022-11-10T06:09:18.276Z,101521.06
2022-11-10T06:12:04.672Z,101529.09
2022-11-10T06:14:52.487Z,101522.38
2022-11-10T06:17:39.143Z,101534.78
2022-11-10T06:20:26.695Z,101544.59
2022-11-10T06:23:14.363Z,101545.72
2022-11-10T06:26:00.889Z,101548.53
2022-11-10T06:28:46.982Z,101550.28
2022-11-10T06:31:34.666Z,101560.09
2022-11-10T06:34:21.578Z,101575.88
2022-11-10T06:37:08.141Z,101582.88
2022-11-10T06:39:54.391Z,101601.19
2022-11-10T06:42:41.603Z,101596.06
2022-11-10T06:45:29.144Z,101603.16
2022-11-10T06:48:16.712Z,101608.47
2022-11-10T06:51:03.880Z,101612.97
2022-11-10T06:53:50.198Z,101620.91
2022-11-10T06:56:36.112Z,101628.84
2022-11-10T06:59:22.267Z,101636.69
2022-11-10T07:02:14.127Z,101652.38
2022-11-10T07:05:01.948Z,101652.47
2022-11-10T07:07:48.031Z,101656.00
2022-11-10T07:10:34.762Z,101664.78
2022-11-10T07:13:21.907Z,101670.03
2022-11-10T07:16:10.892Z,101682.16
2022-11-10T07:18:57.162Z,101682.94
2022-11-10T07:21:44.681Z,101686.38
2022-11-10T07:24:31.408Z,101695.81
2022-11-10T07:27:20.717Z,101693.28
2022-11-10T07:30:15.210Z,101697.50
2022-11-10T07:33:03.999Z,101705.25
2022-11-10T07:36:01.859Z,101713.94
2022-11-10T07:39:00.859Z,101715.66
2022-11-10T07:41:57.188Z,101714.63
2022-11-10T07:44:51.472Z,101717.94
2022-11-10T07:47:40.720Z,101722.97
2022-11-10T07:50:27.271Z,101722.97
2022-11-10T07:53:20.133Z,101728.97
2022-11-10T07:56:31.929Z,101734.03
2022-11-10T07:59:26.741Z,101743.38
2022-11-10T08:02:27.475Z,101745.00
2022-11-10T08:06:02.393Z,101755.28
2022-11-10T08:09:39.275Z,101759.50
2022-11-10T08:12:56.877Z,101756.53
2022-11-10T08:15:47.918Z,101762.44
2022-11-10T08:18:49.268Z,101766.84
2022-11-10T08:22:35.721Z,101765.03
2022-11-10T08:25:35.762Z,101764.88
2022-11-10T08:31:22.470Z,101776.75
2022-11-10T08:34:42.116Z,101776.63
2022-11-10T08:38:14.151Z,101779.97
2022-11-10T08:45:11.078Z,101790.09
2022-11-10T08:48:09.009Z,101797.63
2022-11-10T08:55:09.663Z,101816.34
2022-11-10T08:58:22.793Z,101813.56
2022-11-10T09:01:12.246Z,101816.75
2022-11-10T09:04:03.221Z,101828.56
2022-11-10T09:07:01.289Z,101840.47
2022-11-10T09:10:14.439Z,101843.47
2022-11-10T09:13:01.989Z,101850.22
2022-11-10T09:15:48.717Z,101853.50
2022-11-10T09:18:35.055Z,101854.06
2022-11-10T09:21:21.525Z,101861.56
2022-11-10T09:24:08.451Z,101870.78
2022-11-10T09:26:57.550Z,101878.25
2022-11-10T09:29:43.562Z,101873.47
2022-11-10T09:32:29.665Z,101870.59
2022-11-10T09:35:16.751Z,101864.03
2022-11-10T09:38:02.974Z,101862.84
2022-11-10T09:40:59.234Z,101870.44
2022-11-10T09:43:58.582Z,101876.06
2022-11-10T09:46:47.701Z,101876.13
2022-11-10T09:49:37.576Z,101867.13
2022-11-10T09:52:27.467Z,101875.91
2022-11-10T09:55:24.772Z,101882.94
2022-11-10T09:58:14.330Z,101887.41
2022-11-10T10:01:10.381Z,101893.00
2022-11-10T10:04:06.756Z,101884.09
2022-11-10T10:07:10.785Z,101888.53
2022-11-10T10:10:16.006Z,101892.94
2022-11-10T10:13:24.638Z,101882.78
2022-11-10T10:16:19.959Z,101885.09
2022-11-10T10:19:16.100Z,101886.75
2022-11-10T10:22:30.719Z,101897.06
2022-11-10T10:25:21.638Z,101886.81
2022-11-10T10:28:15.533Z,101893.09
2022-11-10T10:31:14.094Z,101884.91
2022-11-10T10:34:03.040Z,101896.84
2022-11-10T10:36:49.825Z,101898.69
2022-11-10T10:39:41.712Z,101900.16
2022-11-10T10:42:31.977Z,101894.75
2022-11-10T10:45:21.774Z,101903.66
2022-11-10T10:48:25.095Z,101902.06
2022-11-10T10:51:28.843Z,101897.16
2022-11-10T10:54:24.831Z,101899.69
2022-11-10T10:57:22.566Z,101907.25
2022-11-10T11:00:21.611Z,101912.66
2022-11-10T11:03:14.997Z,101915.75
2022-11-10T11:06:08.280Z,101907.84
2022-11-10T11:09:03.443Z,101918.50
2022-11-10T11:12:21.149Z,101909.97
2022-11-10T11:15:29.382Z,101914.63
2022-11-10T11:18:32.592Z,101920.22
2022-11-10T11:22:45.099Z,101906.16
2022-11-10T11:29:16.337Z,101918.78
2022-11-10T11:32:19.502Z,101915.44
2022-11-10T11:35:20.916Z,101922.22
2022-11-10T11:38:13.459Z,101930.25
2022-11-10T11:41:13.281Z,101924.59
2022-11-10T11:44:13.670Z,101918.09
2022-11-10T11:47:07.304Z,101930.16
2022-11-10T11:50:07.160Z,101930.13
2022-11-10T11:53:06.415Z,101925.22
2022-11-10T11:56:09.117Z,101929.25
2022-11-10T11:59:11.054Z,101915.44
2022-11-10T12:02:20.674Z,101921.69
2022-11-10T12:05:26.461Z,101923.13
2022-11-10T12:08:24.519Z,101923.63
2022-11-10T12:11:21.979Z,101928.78
2022-11-10T12:14:19.159Z,101931.97
2022-11-10T12:17:14.468Z,101925.63
2022-11-10T12:20:07.494Z,101923.75
2022-11-10T12:23:04.581Z,101925.25
2022-11-10T12:26:02.373Z,101929.31
2022-11-10T12:28:56.621Z,101930.63
2022-11-10T12:31:47.003Z,101933.63
2022-11-10T12:34:40.830Z,101934.91
2022-11-10T12:37:33.553Z,101936.09
2022-11-10T12:40:22.770Z,101944.22
2022-11-10T12:43:18.514Z,101950.59
2022-11-10T12:46:12.433Z,101955.44
2022-11-10T12:49:08.713Z,101950.88
2022-11-10T12:52:03.152Z,101956.91
2022-11-10T12:54:49.589Z,101969.03
2022-11-10T12:57:37.345Z,101967.94
2022-11-10T13:00:28.169Z,101980.38
2022-11-10T13:03:27.167Z,101982.97
2022-11-10T13:06:25.755Z,101986.38
2022-11-10T13:09:27.544Z,101983.34
2022-11-10T13:12:34.156Z,101989.03
2022-11-10T13:15:46.854Z,101988.44
2022-11-10T13:19:02.850Z,102000.28
2022-11-10T13:22:07.231Z,101995.22
2022-11-10T13:24:53.930Z,101994.28
2022-11-10T13:27:53.420Z,102002.28
2022-11-10T13:30:46.529Z,101995.91
2022-11-10T13:33:42.343Z,101988.44
2022-11-10T13:36:42.094Z,101992.84
2022-11-10T13:39:36.537Z,101999.22
2022-11-10T13:42:40.023Z,101999.88
2022-11-10T13:45:36.494Z,101995.91
2022-11-10T13:48:38.292Z,101989.06
2022-11-10T13:51:39.480Z,102003.28
2022-11-10T13:54:55.041Z,102011.78
2022-11-10T13:57:42.898Z,102025.63
2022-11-10T14:00:32.357Z,102017.66
2022-11-10T14:04:02.057Z,102031.59
2022-11-10T14:06:51.334Z,102018.13
2022-11-10T14:09:43.552Z,102025.53
2022-11-10T14:12:34.989Z,102030.03
2022-11-10T14:15:25.088Z,102031.09
2022-11-10T14:18:21.858Z,102039.22
2022-11-10T14:21:13.333Z,102040.25
2022-11-10T14:24:08.384Z,102043.97
2022-11-10T14:26:59.757Z,102037.28
2022-11-10T14:29:46.386Z,102039.41
2022-11-10T14:32:32.615Z,102043.94
2022-11-10T14:35:22.532Z,102047.84
2022-11-10T14:38:20.605Z,102060.59
2022-11-10T14:41:15.451Z,102062.69
2022-11-10T14:44:05.386Z,102069.31
2022-11-10T14:46:52.309Z,102059.94
2022-11-10T14:49:38.249Z,102067.19
2022-11-10T14:52:24.463Z,102080.59
2022-11-10T14:55:19.517Z,102091.31
2022-11-10T14:58:12.260Z,102102.97
2022-11-10T15:01:00.595Z,102101.59
2022-11-10T15:03:47.080Z,102097.56
2022-11-10T15:06:35.202Z,102103.16
2022-11-10T15:09:27.373Z,102107.84
2022-11-10T15:12:23.140Z,102105.56
2022-11-10T15:15:21.527Z,102105.09
2022-11-10T15:18:25.352Z,102109.78
2022-11-10T15:21:13.658Z,102106.44
2022-11-10T15:24:02.968Z,102122.50
2022-11-10T15:26:49.577Z,102127.88
2022-11-10T15:29:37.159Z,102128.06
2022-11-10T15:32:27.172Z,102131.00
2022-11-10T15:35:28.773Z,102132.97
2022-11-10T15:38:31.475Z,102146.31
2022-11-10T15:41:27.389Z,102150.03
2022-11-10T15:44:16.630Z,102138.88
2022-11-10T15:47:03.055Z,102145.28
2022-11-10T15:49:50.370Z,102141.13
2022-11-10T15:52:39.103Z,102150.16
2022-11-10T15:55:25.920Z,102156.34
2022-11-10T15:58:17.792Z,102146.84
2022-11-10T16:01:04.301Z,102152.25
2022-11-10T16:03:50.718Z,102143.78
2022-11-10T16:06:37.253Z,102150.16
2022-11-10T16:09:25.042Z,102139.09
2022-11-10T16:12:18.157Z,102143.88
2022-11-10T16:15:04.400Z,102143.31
2022-11-10T16:17:50.524Z,102143.78
2022-11-10T16:20:36.982Z,102151.00
2022-11-10T16:23:23.490Z,102144.31
2022-11-10T16:26:14.455Z,102149.88
2022-11-10T16:29:01.027Z,102148.44
2022-11-10T16:31:47.752Z,102161.09
2022-11-10T16:34:33.975Z,102158.72
2022-11-10T16:37:20.299Z,102158.91
2022-11-10T16:40:14.244Z,102170.53
2022-11-10T16:43:01.808Z,102175.13
2022-11-10T16:45:49.629Z,102186.72
2022-11-10T16:48:37.274Z,102200.91
2022-11-10T16:51:29.568Z,102201.06
2022-11-10T16:54:16.338Z,102194.19
2022-11-10T16:57:02.448Z,102191.66
2022-11-10T16:59:49.889Z,102202.44
2022-11-10T17:02:37.470Z,102198.22
2022-11-10T17:05:23.900Z,102191.53
2022-11-10T17:08:21.356Z,102192.69
2022-11-10T17:11:08.755Z,102195.56
2022-11-10T17:13:54.756Z,102203.69
2022-11-10T17:16:45.209Z,102210.88
2022-11-10T17:19:31.564Z,102213.00
2022-11-10T17:22:20.152Z,102217.66
2022-11-10T17:25:07.968Z,102213.53
2022-11-10T17:27:55.153Z,102214.53
2022-11-10T17:30:41.653Z,102228.56
2022-11-10T17:33:29.216Z,102234.09
2022-11-10T17:36:19.689Z,102235.16
2022-11-10T17:39:06.166Z,102250.22
2022-11-10T17:41:52.607Z,102246.94
2022-11-10T17:44:38.481Z,102255.78
2022-11-10T17:47:24.860Z,102255.13
2022-11-10T17:50:12.237Z,102250.97
2022-11-10T17:52:59.032Z,102251.22
2022-11-10T17:55:45.505Z,102255.78
2022-11-10T17:58:32.070Z,102253.25
2022-11-10T18:01:22.293Z,102263.00
2022-11-10T18:04:12.744Z,102255.34
2022-11-10T18:06:59.878Z,102255.56
2022-11-10T18:09:48.422Z,102264.34
2022-11-10T18:12:34.972Z,102254.81
2022-11-10T18:15:21.376Z,102262.91
2022-11-10T18:18:12.554Z,102252.50
2022-11-10T18:20:58.837Z,102246.50
2022-11-10T18:23:46.318Z,102252.72
2022-11-10T18:26:32.343Z,102253.56
2022-11-10T18:29:19.122Z,102251.03
2022-11-10T18:32:06.186Z,102250.25
2022-11-10T18:34:52.033Z,102259.06
2022-11-10T18:37:39.358Z,102256.34
2022-11-10T18:40:27.376Z,102266.75
2022-11-10T18:43:13.993Z,102270.31
2022-11-10T18:46:00.079Z,102279.00
2022-11-10T18:48:46.910Z,102265.91
2022-11-10T18:51:33.137Z,102279.09
2022-11-10T18:54:19.678Z,102286.94
2022-11-10T18:57:07.477Z,102287.72
2022-11-10T18:59:53.809Z,102292.09
2022-11-10T19:02:39.746Z,102281.63
2022-11-10T19:05:26.102Z,102295.56
2022-11-10T19:08:12.275Z,102288.56
2022-11-10T19:10:58.397Z,102285.97
2022-11-10T19:13:45.900Z,102286.88
2022-11-10T19:16:31.942Z,102278.94
2022-11-10T19:19:18.261Z,102274.59
2022-11-10T19:22:04.622Z,102289.50
2022-11-10T19:27:57.269Z,102312.00
2022-11-10T19:30:45.640Z,102297.13
2022-11-10T19:33:33.635Z,102295.34
2022-11-10T19:36:21.815Z,102313.59
2022-11-10T19:39:10.275Z,102313.59
2022-11-10T19:42:04.457Z,102325.03
2022-11-10T19:44:51.282Z,102304.91
2022-11-10T19:47:39.398Z,102294.56
2022-11-10T19:50:25.620Z,102299.91
2022-11-10T19:53:12.471Z,102298.19
2022-11-10T19:56:03.288Z,102300.88
2022-11-10T19:58:49.492Z,102307.00
2022-11-10T20:01:37.572Z,102310.44
2022-11-10T20:04:25.265Z,102314.84
2022-11-10T20:07:29.003Z,102305.28
2022-11-10T20:10:16.060Z,102300.03
2022-11-10T20:13:04.532Z,102306.13
2022-11-10T20:15:50.636Z,102307.91
2022-11-10T20:18:39.528Z,102314.84
2022-11-10T20:21:28.717Z,102310.53
2022-11-10T20:24:15.132Z,102324.31
2022-11-10T20:27:01.435Z,102322.50
2022-11-10T20:29:48.115Z,102332.09
2022-11-10T20:32:34.358Z,102338.91
2022-11-10T20:35:21.018Z,102337.03
2022-11-10T20:38:08.689Z,102339.72
2022-11-10T20:41:03.250Z,102342.28
2022-11-10T20:43:49.724Z,102343.91
2022-11-10T20:49:43.362Z,102356.84
2022-11-10T20:52:29.882Z,102377.66
2022-11-10T20:55:18.455Z,102377.56
2022-11-10T20:58:05.640Z,102373.28
2022-11-10T21:00:55.134Z,102368.88
2022-11-10T21:03:42.471Z,102367.97
2022-11-10T21:06:28.770Z,102360.09
2022-11-10T21:09:15.326Z,102375.72
2022-11-10T21:12:21.114Z,102378.34
2022-11-10T21:15:08.797Z,102388.94
2022-11-10T21:17:55.237Z,102382.81
2022-11-10T21:20:41.893Z,102390.69
2022-11-10T21:23:28.336Z,102391.56
2022-11-10T21:26:15.614Z,102396.69
2022-11-10T21:29:04.557Z,102392.38
2022-11-10T21:31:54.921Z,102387.97
2022-11-10T21:34:41.805Z,102389.69
2022-11-10T21:37:28.254Z,102379.22
2022-11-10T21:40:17.713Z,102377.44
2022-11-10T21:43:04.180Z,102378.34
2022-11-10T21:45:57.387Z,102379.22
2022-11-10T21:48:44.133Z,102373.03
2022-11-10T21:51:30.343Z,102368.72
2022-11-10T21:54:20.670Z,102372.34
2022-11-10T21:57:06.936Z,102378.44
2022-11-10T21:59:53.001Z,102370.66
2022-11-10T22:02:40.441Z,102364.63
2022-11-10T22:05:28.760Z,102369.09
2022-11-10T22:08:21.778Z,102370.03
2022-11-10T22:11:31.289Z,102372.75
2022-11-10T22:14:39.187Z,102373.03
2022-11-10T22:17:43.549Z,102390.75
2022-11-10T22:20:34.120Z,102371.72
2022-11-10T22:23:46.279Z,102380.66
2022-11-10T22:26:32.880Z,102388.66
2022-11-10T22:29:19.401Z,102400.22
2022-11-10T22:32:06.172Z,102416.09
2022-11-10T22:34:52.304Z,102411.84
2022-11-10T22:37:40.009Z,102413.69
2022-11-10T22:40:43.708Z,102410.22
2022-11-10T22:43:47.755Z,102420.00
2022-11-10T22:46:35.786Z,102418.31
2022-11-10T22:49:27.542Z,102413.34
2022-11-10T22:52:27.217Z,102419.66
2022-11-10T22:55:15.812Z,102416.53
2022-11-10T22:58:02.592Z,102417.50
2022-11-10T23:00:49.455Z,102419.44
2022-11-10T23:03:38.679Z,102422.25
2022-11-10T23:06:25.422Z,102422.47
2022-11-10T23:09:12.068Z,102423.53
2022-11-10T23:11:59.602Z,102416.03
2022-11-10T23:14:48.288Z,102418.91
2022-11-10T23:17:34.470Z,102424.50
2022-11-10T23:20:20.913Z,102417.78
2022-11-10T23:23:07.311Z,102418.13
2022-11-10T23:25:58.475Z,102419.25
2022-11-10T23:28:47.352Z,102429.91
2022-11-10T23:31:33.787Z,102437.91
2022-11-10T23:34:21.939Z,102444.88
2022-11-10T23:37:11.671Z,102440.66
2022-11-10T23:39:58.126Z,102436.47
2022-11-10T23:42:45.909Z,102434.78
2022-11-10T23:46:04.881Z,102434.97
2022-11-10T23:48:40.817Z,102433.41
2022-11-10T23:51:27.074Z,102428.44
2022-11-10T23:54:13.085Z,102431.25
2022-11-10T23:56:59.295Z,102438.28
2022-11-10T23:59:45.938Z,102439.28
